createdAt,value
2022-09-28T00:02:24.042Z,12.80
2022-09-28T00:04:50.577Z,12.80
2022-09-28T00:07:17.027Z,12.80
2022-09-28T00:09:43.447Z,12.80
2022-09-28T00:12:09.896Z,12.80
2022-09-28T00:14:36.372Z,12.70
2022-09-28T00:17:02.821Z,12.70
2022-09-28T00:19:29.246Z,12.70
2022-09-28T00:21:55.677Z,12.70
2022-09-28T00:24:26.669Z,12.70
2022-09-28T00:26:54.047Z,12.70
2022-09-28T00:29:20.485Z,12.70
2022-09-28T00:31:47.008Z,12.60
2022-09-28T00:34:13.526Z,12.50
2022-09-28T00:36:39.965Z,12.50
2022-09-28T00:39:06.403Z,12.50
2022-09-28T00:41:32.843Z,12.50
2022-09-28T00:43:59.296Z,12.50
2022-09-28T00:46:25.730Z,12.40
2022-09-28T00:48:52.192Z,12.40
2022-09-28T00:51:18.637Z,12.30
2022-09-28T00:53:45.073Z,12.20
2022-09-28T00:56:11.501Z,12.20
2022-09-28T00:58:37.969Z,12.20
2022-09-28T01:01:04.474Z,12.20
2022-09-28T01:03:30.981Z,12.20
2022-09-28T01:05:57.412Z,12.10
2022-09-28T01:08:24.883Z,12.20
2022-09-28T01:10:51.317Z,12.10
2022-09-28T01:13:17.778Z,12.10
2022-09-28T01:15:44.217Z,12.10
2022-09-28T01:18:10.647Z,12.10
2022-09-28T01:20:37.100Z,12.10
2022-09-28T01:23:03.533Z,12.10
2022-09-28T01:25:29.992Z,12.10
2022-09-28T01:27:56.425Z,12.10
2022-09-28T01:30:22.864Z,12.10
2022-09-28T01:32:49.290Z,12.10
2022-09-28T01:35:15.737Z,12.10
2022-09-28T01:37:42.173Z,12.10
2022-09-28T01:40:08.619Z,12.10
2022-09-28T01:42:35.060Z,12.20
2022-09-28T01:45:01.514Z,12.20
2022-09-28T01:47:27.935Z,12.20
2022-09-28T01:49:54.382Z,12.20
2022-09-28T01:52:20.811Z,12.20
2022-09-28T01:54:47.247Z,12.20
2022-09-28T01:57:13.695Z,12.10
2022-09-28T01:59:40.129Z,12.10
2022-09-28T02:02:06.604Z,12.10
2022-09-28T02:04:33.065Z,12.10
2022-09-28T02:06:59.524Z,12.10
2022-09-28T02:09:28.461Z,12.10
2022-09-28T02:11:56.973Z,12.10
2022-09-28T02:14:23.406Z,12.10
2022-09-28T02:16:49.851Z,12.10
2022-09-28T02:19:16.474Z,12.10
2022-09-28T02:21:43.038Z,12.10
2022-09-28T02:24:09.479Z,12.00
2022-09-28T02:26:35.923Z,12.00
2022-09-28T02:29:02.365Z,12.00
2022-09-28T02:31:28.844Z,12.00
2022-09-28T02:33:55.306Z,12.10
2022-09-28T02:36:21.738Z,12.00
2022-09-28T02:38:48.189Z,12.00
2022-09-28T02:41:14.623Z,12.00
2022-09-28T02:43:41.068Z,12.00
2022-09-28T02:46:07.562Z,12.00
2022-09-28T02:48:43.509Z,12.00
2022-09-28T02:51:11.135Z,12.00
2022-09-28T02:53:37.581Z,12.00
2022-09-28T02:56:04.000Z,11.90
2022-09-28T02:58:30.425Z,11.90
2022-09-28T03:00:56.911Z,11.90
2022-09-28T03:03:23.381Z,11.80
2022-09-28T03:05:49.809Z,11.80
2022-09-28T03:08:16.248Z,11.80
2022-09-28T03:10:42.677Z,11.80
2022-09-28T03:13:09.104Z,11.70
2022-09-28T03:15:35.560Z,11.60
2022-09-28T03:18:01.984Z,11.50
2022-09-28T03:20:28.414Z,11.50
2022-09-28T03:23:12.688Z,11.40
2022-09-28T03:25:41.287Z,11.30
2022-09-28T03:28:07.719Z,11.30
2022-09-28T03:30:34.163Z,11.30
2022-09-28T03:33:00.604Z,11.30
2022-09-28T03:35:27.044Z,11.20
2022-09-28T03:37:53.482Z,11.20
2022-09-28T03:40:19.969Z,11.20
2022-09-28T03:42:46.410Z,11.20
2022-09-28T03:45:12.849Z,11.10
2022-09-28T03:47:39.290Z,11.20
2022-09-28T03:50:05.735Z,11.20
2022-09-28T03:52:32.164Z,11.20
2022-09-28T03:54:58.609Z,11.20
2022-09-28T03:57:25.033Z,11.30
2022-09-28T03:59:51.477Z,11.30
2022-09-28T04:02:17.932Z,11.30
2022-09-28T04:04:44.417Z,11.40
2022-09-28T04:07:10.852Z,11.40
2022-09-28T04:09:37.293Z,11.50
2022-09-28T04:12:04.614Z,11.50
2022-09-28T04:14:31.210Z,11.50
2022-09-28T04:16:57.644Z,11.50
2022-09-28T04:19:24.098Z,11.50
2022-09-28T04:21:50.540Z,11.50
2022-09-28T04:24:17.006Z,11.50
2022-09-28T04:26:43.456Z,11.50
2022-09-28T04:29:09.906Z,11.50
2022-09-28T04:31:36.399Z,11.50
2022-09-28T04:34:02.877Z,11.50
2022-09-28T04:36:29.315Z,11.50
2022-09-28T04:38:55.772Z,11.60
2022-09-28T04:41:22.324Z,11.60
2022-09-28T04:43:48.979Z,11.60
2022-09-28T04:46:15.482Z,11.60
2022-09-28T04:48:41.956Z,11.60
2022-09-28T04:51:08.397Z,11.60
2022-09-28T04:53:34.829Z,11.70
2022-09-28T04:56:01.256Z,11.70
2022-09-28T04:58:27.685Z,11.70
2022-09-28T05:00:54.173Z,11.60
2022-09-28T05:03:20.652Z,11.60
2022-09-28T05:05:47.102Z,11.60
2022-09-28T05:08:13.544Z,11.60
2022-09-28T05:10:39.974Z,11.60
2022-09-28T05:13:06.406Z,11.70
2022-09-28T05:15:32.868Z,11.60
2022-09-28T05:17:59.304Z,11.60
2022-09-28T05:20:25.745Z,11.60
2022-09-28T05:22:52.189Z,11.70
2022-09-28T05:25:18.649Z,11.60
2022-09-28T05:27:45.085Z,11.60
2022-09-28T05:30:11.521Z,11.60
2022-09-28T05:32:37.982Z,11.60
2022-09-28T05:35:04.423Z,11.60
2022-09-28T05:37:30.875Z,11.60
2022-09-28T05:39:57.303Z,11.60
2022-09-28T05:42:23.748Z,11.60
2022-09-28T05:44:50.180Z,11.60
2022-09-28T05:47:16.638Z,11.60
2022-09-28T05:49:43.083Z,11.70
2022-09-28T05:52:09.523Z,11.70
2022-09-28T05:54:35.952Z,11.70
2022-09-28T05:57:02.403Z,11.70
2022-09-28T05:59:28.898Z,11.70
2022-09-28T06:01:55.347Z,11.80
2022-09-28T06:04:21.768Z,11.80
2022-09-28T06:06:48.228Z,11.80
2022-09-28T06:09:14.661Z,11.80
2022-09-28T06:11:41.106Z,11.80
2022-09-28T06:14:07.541Z,11.70
2022-09-28T06:16:34.029Z,11.70
2022-09-28T06:19:00.498Z,11.70
2022-09-28T06:21:26.931Z,11.70
2022-09-28T06:23:53.371Z,11.70
2022-09-28T06:26:19.794Z,11.70
2022-09-28T06:28:46.252Z,11.70
2022-09-28T06:31:12.740Z,11.70
2022-09-28T06:33:39.255Z,11.70
2022-09-28T06:36:05.676Z,11.70
2022-09-28T06:38:32.133Z,11.80
2022-09-28T06:40:58.605Z,11.80
2022-09-28T06:43:25.088Z,11.80
2022-09-28T06:45:51.579Z,11.80
2022-09-28T06:48:18.087Z,11.80
2022-09-28T06:50:44.522Z,11.80
2022-09-28T06:53:11.138Z,11.80
2022-09-28T06:55:37.561Z,11.70
2022-09-28T06:58:04.010Z,11.80
2022-09-28T07:00:30.442Z,11.80
2022-09-28T07:02:56.877Z,11.90
2022-09-28T07:05:23.313Z,11.90
2022-09-28T07:07:49.769Z,11.90
2022-09-28T07:10:16.218Z,11.80
2022-09-28T07:12:42.667Z,11.90
2022-09-28T07:15:09.083Z,11.90
2022-09-28T07:17:45.381Z,12.00
2022-09-28T07:20:19.577Z,12.00
2022-09-28T07:22:46.322Z,12.10
2022-09-28T07:25:12.782Z,12.10
2022-09-28T07:27:39.219Z,12.20
2022-09-28T07:30:05.671Z,12.20
2022-09-28T07:35:03.429Z,12.30
2022-09-28T07:37:29.846Z,12.40
2022-09-28T07:39:56.267Z,12.40
2022-09-28T07:42:22.683Z,12.50
2022-09-28T07:44:49.134Z,12.50
2022-09-28T07:47:15.585Z,12.50
2022-09-28T07:49:42.012Z,12.50
2022-09-28T07:52:08.436Z,12.60
2022-09-28T07:54:34.878Z,12.60
2022-09-28T07:57:01.288Z,12.60
2022-09-28T07:59:27.712Z,12.70
2022-09-28T08:01:54.202Z,12.70
2022-09-28T08:04:20.661Z,12.70
2022-09-28T08:06:47.109Z,12.70
2022-09-28T08:09:13.600Z,12.80
2022-09-28T08:11:40.074Z,12.90
2022-09-28T08:14:06.493Z,12.90
2022-09-28T08:16:32.996Z,13.00
2022-09-28T08:18:59.488Z,13.00
2022-09-28T08:21:25.929Z,13.10
2022-09-28T08:23:52.383Z,13.10
2022-09-28T08:26:18.827Z,13.10
2022-09-28T08:28:45.319Z,13.20
2022-09-28T08:31:11.818Z,13.20
2022-09-28T08:33:38.367Z,13.20
2022-09-28T08:36:04.786Z,13.30
2022-09-28T08:38:31.212Z,13.30
2022-09-28T08:40:57.702Z,13.30
2022-09-28T08:43:24.241Z,13.40
2022-09-28T08:45:50.696Z,13.40
2022-09-28T08:48:17.189Z,13.40
2022-09-28T08:50:43.602Z,13.40
2022-09-28T08:53:10.084Z,13.40
2022-09-28T08:55:36.507Z,13.50
2022-09-28T08:58:02.944Z,13.50
2022-09-28T09:00:29.388Z,13.50
2022-09-28T09:02:55.873Z,13.50
2022-09-28T09:05:22.335Z,13.50
2022-09-28T09:07:48.773Z,13.60
2022-09-28T09:10:15.226Z,13.60
2022-09-28T09:12:41.684Z,13.60
2022-09-28T09:15:08.148Z,13.60
2022-09-28T09:17:34.754Z,13.60
2022-09-28T09:20:01.195Z,13.60
2022-09-28T09:22:27.625Z,13.70
2022-09-28T09:24:54.064Z,13.70
2022-09-28T09:27:20.496Z,13.90
2022-09-28T09:29:46.916Z,14.00
2022-09-28T09:32:13.345Z,14.20
2022-09-28T09:34:39.774Z,14.40
2022-09-28T09:37:06.237Z,14.40
2022-09-28T09:39:32.647Z,14.60
2022-09-28T09:41:59.069Z,15.00
2022-09-28T09:44:25.520Z,15.30
2022-09-28T09:46:51.945Z,15.50
2022-09-28T09:49:18.373Z,15.70
2022-09-28T09:51:44.806Z,15.90
2022-09-28T09:54:11.291Z,16.20
2022-09-28T09:56:37.761Z,16.40
2022-09-28T09:59:04.194Z,16.60
2022-09-28T10:01:30.656Z,16.80
2022-09-28T10:03:57.150Z,16.90
2022-09-28T10:06:23.577Z,17.00
2022-09-28T10:08:50.008Z,17.30
2022-09-28T10:11:16.442Z,17.50
2022-09-28T10:13:42.869Z,17.60
2022-09-28T10:16:09.316Z,17.50
2022-09-28T10:18:35.726Z,17.50
2022-09-28T10:21:02.165Z,17.50
2022-09-28T10:23:28.602Z,17.60
2022-09-28T10:25:55.062Z,17.60
2022-09-28T10:28:21.484Z,17.70
2022-09-28T10:30:48.005Z,18.00
2022-09-28T10:33:14.485Z,18.30
2022-09-28T10:35:40.932Z,18.70
2022-09-28T10:38:07.369Z,19.10
2022-09-28T10:40:33.830Z,19.50
2022-09-28T10:43:00.317Z,19.60
2022-09-28T10:45:26.739Z,19.60
2022-09-28T10:47:53.169Z,19.80
2022-09-28T10:50:19.590Z,19.80
2022-09-28T10:52:46.020Z,19.90
2022-09-28T10:55:12.443Z,19.80
2022-09-28T10:57:38.874Z,19.80
2022-09-28T11:00:05.297Z,19.80
2022-09-28T11:02:35.767Z,19.80
2022-09-28T11:05:02.743Z,19.70
2022-09-28T11:07:29.184Z,19.60
2022-09-28T11:09:55.595Z,19.50
2022-09-28T11:12:22.023Z,19.30
2022-09-28T11:14:48.444Z,19.10
2022-09-28T11:17:15.065Z,19.00
2022-09-28T11:19:41.541Z,18.90
2022-09-28T11:22:10.528Z,18.70
2022-09-28T11:24:38.356Z,18.60
2022-09-28T11:27:04.776Z,18.50
2022-09-28T11:29:31.208Z,18.40
2022-09-28T11:31:57.634Z,18.50
2022-09-28T11:34:31.495Z,18.90
2022-09-28T11:37:10.487Z,19.30
2022-09-28T11:39:36.912Z,19.50
2022-09-28T11:42:03.368Z,19.60
2022-09-28T11:44:32.690Z,19.40
2022-09-28T11:46:59.997Z,19.30
2022-09-28T11:49:26.484Z,19.10
2022-09-28T11:51:52.927Z,19.10
2022-09-28T11:54:19.519Z,19.10
2022-09-28T11:56:46.080Z,19.20
2022-09-28T11:59:12.499Z,19.40
2022-09-28T12:01:38.922Z,19.70
2022-09-28T12:04:05.336Z,19.90
2022-09-28T12:06:31.776Z,20.10
2022-09-28T12:08:58.201Z,20.10
2022-09-28T12:11:24.642Z,20.10
2022-09-28T12:13:51.074Z,20.10
2022-09-28T12:16:38.747Z,20.10
2022-09-28T12:19:03.909Z,19.90
2022-09-28T12:21:30.341Z,19.70
2022-09-28T12:23:56.762Z,19.50
2022-09-28T12:26:23.204Z,19.40
2022-09-28T12:28:49.625Z,19.30
2022-09-28T12:31:16.130Z,19.20
2022-09-28T12:33:42.580Z,19.20
2022-09-28T12:36:09.008Z,19.20
2022-09-28T12:38:35.451Z,19.20
2022-09-28T12:41:01.931Z,19.20
2022-09-28T12:43:28.409Z,19.20
2022-09-28T12:46:10.881Z,19.10
2022-09-28T12:48:38.278Z,19.00
2022-09-28T12:51:04.708Z,18.80
2022-09-28T12:53:31.154Z,18.60
2022-09-28T12:55:57.598Z,18.50
2022-09-28T12:58:24.016Z,18.30
2022-09-28T13:00:50.456Z,18.30
2022-09-28T13:03:16.912Z,18.20
2022-09-28T13:05:43.351Z,18.10
2022-09-28T13:08:09.760Z,18.00
2022-09-28T13:10:36.186Z,17.90
2022-09-28T13:13:02.617Z,17.80
2022-09-28T13:15:29.119Z,17.80
2022-09-28T13:17:55.589Z,17.80
2022-09-28T13:20:22.028Z,17.80
2022-09-28T13:22:48.449Z,17.70
2022-09-28T13:25:14.888Z,17.80
2022-09-28T13:27:41.327Z,17.80
2022-09-28T13:30:07.779Z,17.80
2022-09-28T13:32:34.206Z,17.90
2022-09-28T13:35:00.637Z,18.00
2022-09-28T13:37:27.073Z,18.10
2022-09-28T13:39:53.502Z,18.10
2022-09-28T13:42:19.933Z,18.20
2022-09-28T13:44:46.344Z,18.30
2022-09-28T13:47:12.784Z,18.40
2022-09-28T13:49:39.224Z,18.50
2022-09-28T13:52:05.648Z,18.50
2022-09-28T13:54:32.069Z,18.50
2022-09-28T13:56:58.508Z,18.40
2022-09-28T13:59:24.946Z,18.40
2022-09-28T14:01:51.457Z,18.30
2022-09-28T14:04:18.059Z,18.30
2022-09-28T14:06:48.097Z,18.30
2022-09-28T14:09:16.034Z,18.30
2022-09-28T14:11:42.577Z,18.30
2022-09-28T14:14:09.031Z,18.20
2022-09-28T14:16:35.453Z,18.10
2022-09-28T14:19:01.904Z,18.10
2022-09-28T14:21:28.341Z,18.10
2022-09-28T14:23:59.000Z,18.10
2022-09-28T14:26:26.409Z,18.10
2022-09-28T14:28:52.840Z,18.00
2022-09-28T14:31:19.276Z,18.00
2022-09-28T14:33:45.772Z,17.90
2022-09-28T14:36:12.213Z,17.80
2022-09-28T14:38:38.649Z,17.70
2022-09-28T14:41:05.122Z,17.70
2022-09-28T14:43:31.649Z,17.60
2022-09-28T14:45:58.106Z,17.60
2022-09-28T14:48:24.545Z,17.50
2022-09-28T14:50:50.981Z,17.50
2022-09-28T14:53:17.404Z,17.50
2022-09-28T14:55:43.850Z,17.50
2022-09-28T14:58:10.273Z,17.50
2022-09-28T15:00:36.727Z,17.60
2022-09-28T15:03:03.224Z,17.50
2022-09-28T15:05:29.844Z,17.50
2022-09-28T15:07:56.349Z,17.50
2022-09-28T15:10:27.285Z,17.50
2022-09-28T15:12:54.228Z,17.50
2022-09-28T15:15:20.643Z,17.50
2022-09-28T15:17:47.095Z,17.50
2022-09-28T15:20:13.564Z,17.50
2022-09-28T15:22:40.005Z,17.40
2022-09-28T15:25:06.412Z,17.40
2022-09-28T15:27:32.848Z,17.40
2022-09-28T15:29:59.286Z,17.30
2022-09-28T15:32:25.746Z,17.30
2022-09-28T15:34:52.165Z,17.20
2022-09-28T15:37:18.601Z,17.10
2022-09-28T15:39:45.017Z,17.10
2022-09-28T15:42:11.469Z,17.00
2022-09-28T15:44:37.884Z,17.00
2022-09-28T15:47:04.329Z,17.00
2022-09-28T15:49:31.572Z,16.90
2022-09-28T15:51:59.211Z,16.90
2022-09-28T15:54:25.619Z,16.90
2022-09-28T15:56:52.064Z,16.80
2022-09-28T15:59:18.503Z,16.80
2022-09-28T16:01:44.969Z,16.70
2022-09-28T16:04:11.433Z,16.70
2022-09-28T16:06:37.930Z,16.60
2022-09-28T16:09:04.379Z,16.60
2022-09-28T16:11:30.837Z,16.60
2022-09-28T16:13:57.276Z,16.50
2022-09-28T16:16:23.729Z,16.30
2022-09-28T16:18:50.207Z,16.20
2022-09-28T16:21:16.625Z,16.00
2022-09-28T16:23:43.059Z,15.80
2022-09-28T16:26:09.492Z,15.70
2022-09-28T16:28:35.939Z,15.60
2022-09-28T16:31:02.401Z,15.50
2022-09-28T16:33:28.909Z,15.50
2022-09-28T16:35:55.316Z,15.40
2022-09-28T16:38:21.751Z,15.40
2022-09-28T16:40:48.269Z,15.30
2022-09-28T16:43:14.736Z,15.30
2022-09-28T16:45:41.163Z,15.10
2022-09-28T16:48:07.590Z,15.10
2022-09-28T16:50:34.051Z,15.10
2022-09-28T16:53:00.498Z,15.10
2022-09-28T16:55:40.184Z,15.10
2022-09-28T16:58:07.513Z,15.10
2022-09-28T17:00:33.970Z,15.20
2022-09-28T17:03:00.442Z,15.20
2022-09-28T17:05:26.921Z,15.10
2022-09-28T17:07:53.353Z,15.10
2022-09-28T17:10:19.779Z,15.00
2022-09-28T17:12:46.201Z,14.90
2022-09-28T17:15:12.638Z,14.90
2022-09-28T17:17:39.066Z,14.90
2022-09-28T17:20:05.496Z,14.90
2022-09-28T17:22:31.917Z,14.90
2022-09-28T17:24:58.370Z,14.80
2022-09-28T17:27:24.805Z,14.80
2022-09-28T17:29:51.237Z,14.80
2022-09-28T17:32:17.674Z,14.80
2022-09-28T17:34:48.303Z,14.80
2022-09-28T17:37:22.165Z,14.80
2022-09-28T17:39:48.617Z,14.80
2022-09-28T17:42:15.050Z,14.80
2022-09-28T17:44:41.499Z,14.80
2022-09-28T17:47:07.930Z,14.80
2022-09-28T17:49:34.385Z,14.70
2022-09-28T17:52:00.821Z,14.70
2022-09-28T17:54:27.269Z,14.70
2022-09-28T17:56:53.751Z,14.60
2022-09-28T17:59:20.218Z,14.50
2022-09-28T18:01:46.704Z,14.50
2022-09-28T18:04:22.992Z,14.50
2022-09-28T18:06:59.609Z,14.50
2022-09-28T18:09:26.057Z,14.40
2022-09-28T18:11:52.505Z,14.40
2022-09-28T18:14:19.008Z,14.40
2022-09-28T18:16:45.443Z,14.30
2022-09-28T18:19:11.884Z,14.30
2022-09-28T18:21:38.329Z,14.30
2022-09-28T18:24:04.752Z,14.30
2022-09-28T18:26:31.188Z,14.20
2022-09-28T18:28:57.609Z,14.20
2022-09-28T18:31:24.137Z,14.20
2022-09-28T18:33:50.636Z,14.20
2022-09-28T18:36:17.089Z,14.10
2022-09-28T18:38:43.522Z,14.10
2022-09-28T18:41:09.973Z,14.10
2022-09-28T18:43:36.631Z,14.00
2022-09-28T18:46:03.125Z,14.00
2022-09-28T18:48:29.585Z,13.90
2022-09-28T18:50:56.023Z,13.80
2022-09-28T18:53:22.452Z,13.80
2022-09-28T18:55:48.904Z,13.80
2022-09-28T18:58:15.517Z,13.80
2022-09-28T19:00:41.973Z,13.70
2022-09-28T19:03:08.486Z,13.70
2022-09-28T19:05:35.015Z,13.60
2022-09-28T19:08:01.454Z,13.60
2022-09-28T19:10:27.902Z,13.50
2022-09-28T19:12:54.501Z,13.50
2022-09-28T19:15:20.933Z,13.50
2022-09-28T19:17:47.347Z,13.50
2022-09-28T19:20:13.797Z,13.40
2022-09-28T19:22:40.228Z,13.40
2022-09-28T19:25:06.677Z,13.40
2022-09-28T19:27:33.118Z,13.40
2022-09-28T19:29:59.556Z,13.30
2022-09-28T19:32:25.990Z,13.20
2022-09-28T19:34:52.441Z,13.20
2022-09-28T19:37:18.851Z,13.10
2022-09-28T19:39:45.296Z,13.10
2022-09-28T19:42:11.742Z,13.10
2022-09-28T19:44:38.185Z,13.00
2022-09-28T19:47:04.625Z,13.00
2022-09-28T19:49:31.060Z,12.90
2022-09-28T19:52:14.778Z,12.90
2022-09-28T19:54:41.648Z,12.90
2022-09-28T19:57:08.267Z,12.80
2022-09-28T19:59:34.739Z,12.70
2022-09-28T20:02:01.243Z,12.70
2022-09-28T20:04:27.789Z,12.70
2022-09-28T20:06:54.216Z,12.70
2022-09-28T20:09:20.854Z,12.60
2022-09-28T20:11:47.459Z,12.60
2022-09-28T20:14:13.882Z,12.60
2022-09-28T20:16:40.321Z,12.60
2022-09-28T20:19:06.760Z,12.60
2022-09-28T20:21:33.204Z,12.60
2022-09-28T20:23:59.668Z,12.60
2022-09-28T20:26:26.088Z,12.60
2022-09-28T20:28:52.515Z,12.60
2022-09-28T20:31:19.054Z,12.60
2022-09-28T20:33:45.498Z,12.60
2022-09-28T20:36:11.942Z,12.50
2022-09-28T20:38:38.376Z,12.50
2022-09-28T20:41:04.797Z,12.50
2022-09-28T20:43:31.235Z,12.50
2022-09-28T20:45:57.720Z,12.50
2022-09-28T20:48:24.165Z,12.40
2022-09-28T20:50:50.613Z,12.40
2022-09-28T20:53:17.054Z,12.40
2022-09-28T20:55:43.489Z,12.40
2022-09-28T20:58:09.928Z,12.40
2022-09-28T21:00:36.353Z,12.40
2022-09-28T21:03:02.873Z,12.40
2022-09-28T21:05:30.562Z,12.30
2022-09-28T21:07:57.166Z,12.30
2022-09-28T21:10:23.598Z,12.30
2022-09-28T21:12:50.024Z,12.30
2022-09-28T21:15:16.445Z,12.20
2022-09-28T21:17:42.889Z,12.20
2022-09-28T21:20:09.342Z,12.20
2022-09-28T21:22:35.789Z,12.10
2022-09-28T21:25:02.220Z,12.10
2022-09-28T21:27:28.656Z,12.00
2022-09-28T21:29:55.097Z,12.00
2022-09-28T21:32:21.538Z,12.10
2022-09-28T21:34:47.967Z,12.10
2022-09-28T21:37:14.420Z,12.00
2022-09-28T21:39:40.838Z,12.00
2022-09-28T21:42:07.293Z,12.00
2022-09-28T21:44:33.719Z,11.90
2022-09-28T21:47:00.162Z,11.90
2022-09-28T21:49:26.603Z,11.90
2022-09-28T21:51:53.041Z,11.90
2022-09-28T21:54:19.629Z,11.90
2022-09-28T21:56:46.229Z,11.90
2022-09-28T21:59:12.671Z,11.90
2022-09-28T22:01:39.186Z,11.90
2022-09-28T22:04:05.611Z,11.90
2022-09-28T22:06:32.060Z,11.80
2022-09-28T22:08:58.479Z,11.80
2022-09-28T22:11:24.907Z,11.80
2022-09-28T22:13:51.342Z,11.80
2022-09-28T22:16:17.799Z,11.80
2022-09-28T22:18:44.292Z,11.80
2022-09-28T22:21:10.751Z,11.70
2022-09-28T22:23:37.211Z,11.70
2022-09-28T22:26:03.663Z,11.70
2022-09-28T22:28:30.101Z,11.60
2022-09-28T22:30:56.563Z,11.60
2022-09-28T22:33:23.071Z,11.60
2022-09-28T22:35:49.494Z,11.50
2022-09-28T22:38:15.941Z,11.50
2022-09-28T22:40:42.398Z,11.50
2022-09-28T22:43:08.883Z,11.40
2022-09-28T22:45:35.296Z,11.40
2022-09-28T22:48:01.745Z,11.40
2022-09-28T22:50:28.186Z,11.40
2022-09-28T22:52:54.633Z,11.30
2022-09-28T22:55:21.073Z,11.30
2022-09-28T22:57:47.515Z,11.30
2022-09-28T23:00:13.934Z,11.30
2022-09-28T23:02:40.422Z,11.30
2022-09-28T23:05:06.923Z,11.20
2022-09-28T23:07:33.357Z,11.20
2022-09-28T23:09:59.775Z,11.20
2022-09-28T23:12:26.214Z,11.20
2022-09-28T23:14:52.627Z,11.20
2022-09-28T23:17:19.064Z,11.20
2022-09-28T23:19:45.497Z,11.10
2022-09-28T23:22:11.924Z,11.00
2022-09-28T23:24:38.367Z,11.00
2022-09-28T23:27:04.808Z,10.90
2022-09-28T23:29:31.245Z,10.90
2022-09-28T23:31:57.657Z,10.80
2022-09-28T23:34:24.106Z,10.80
2022-09-28T23:36:50.550Z,10.80
2022-09-28T23:39:17.115Z,10.80
2022-09-28T23:41:43.577Z,10.80
2022-09-28T23:44:10.009Z,10.80
2022-09-28T23:46:36.464Z,10.80
2022-09-28T23:49:02.932Z,10.70
2022-09-28T23:51:29.354Z,10.70
2022-09-28T23:53:55.788Z,10.70
2022-09-28T23:56:22.216Z,10.60
2022-09-28T23:58:48.645Z,10.50
